Aviation Digital Data Service (ADDS)

Output produced by TAFs form (0122 UTC 27 April 2017)
found at http://www.aviationweather.gov/adds/tafs/
 
METAR text: RJOA 270100Z 33005KT 280V040 9999 FEW020 BKN/// 14/04 Q1009
Conditions at: RJOA (NEW HIROSHIMA , JP) observed 0100 UTC 27 April 2017
Temperature: 14.0°C (57°F)
Dewpoint: 4.0°C (39°F) [RH = 51%]
Pressure (altimeter): 29.79 inches Hg (1009.0 mb)
Winds: from the NNW (330 degrees) at 6 MPH (5 knots; 2.6 m/s)
Visibility: 6 or more miles (10+ km)
Ceiling: at least 12,000 feet AGL
Clouds: few clouds at 2000 feet AGL
Weather: no significant weather observed at this time

Forecast for: RJOA (NEW HIROSHIMA , JP)
Text: TAF RJOA 262306Z 2700/2806 32006KT 9999 FEW030
Forecast period: 0000 UTC 27 April 2017 to 0600 UTC 28 April 2017
Forecast type: FROM: standard forecast or significant change
Winds: from the NW (320 degrees) at 7 MPH (6 knots; 3.1 m/s)
Visibility: 6 or more miles (10+ km)
Clouds: few clouds at 3000 feet AGL
Weather: no significant weather forecast for this period